Terminal Aerodrome Forecast
Issued by NWS Caribou, ME

Home | Current Version | Previous Version | Text Only | Print | Product List | Glossary On
Versions: 1 2 3 4 5 6 7 8 9 10 11 12 13 14 15
000
FTUS41 KCAR 311010 AAB
TAFCAR
TAF AMD
KCAR 311010Z 3110/0106 22004KT P6SM SCT150
      TEMPO 3110/3111 5SM BR SCT008
     FM311200 23009KT P6SM BKN070
     FM311500 25013G20KT P6SM BKN060
     FM010000 31009KT P6SM FEW250=

USA.gov is the U.S. government's official web portal to all federal, state and local government web resources and services.